Time;durP1;ratioP1;P1;durP2;ratioP2;P2;SDS_P1;SDS_P2;PMS_P1;PMS_P2;Temp;Humidity;BMP_temperature;BMP_pressure;BME280_temperature;BME280_humidity;BME280_pressure;Samples;Min_cycle;Max_cycle;Signal;HPM_P1;HPM_P2
2021/04/19 00:01:46;;;;;;;20.20;14.27;;;;;;;5.48;63.21;92733.78;2038498;70;20239;-75
2021/04/19 00:04:12;;;;;;;20.98;14.60;;;;;;;5.29;62.29;92731.59;2038162;70;20163;-76
2021/04/19 00:06:39;;;;;;;20.70;14.55;;;;;;;5.31;62.63;92729.72;2038174;70;20152;-72
2021/04/19 00:09:06;;;;;;;18.80;13.77;;;;;;;5.45;63.09;92729.34;2038470;70;20155;-73
2021/04/19 00:11:32;;;;;;;19.30;13.40;;;;;;;5.38;62.65;92727.41;2038260;70;20274;-76
2021/04/19 00:13:58;;;;;;;20.52;13.98;;;;;;;5.48;62.39;92725.41;2038281;70;20162;-72
2021/04/19 00:16:24;;;;;;;20.73;14.30;;;;;;;5.48;61.87;92720.56;2038240;70;20593;-72
2021/04/19 00:18:49;;;;;;;19.95;13.95;;;;;;;5.44;62.37;92720.22;2038356;70;20625;-76
2021/04/19 00:21:15;;;;;;;22.63;14.68;;;;;;;5.39;63.08;92718.44;2038360;70;20595;-73
2021/04/19 00:23:41;;;;;;;21.67;14.27;;;;;;;5.32;62.77;92722.81;2038354;70;20161;-71
2021/04/19 00:26:07;;;;;;;18.17;13.25;;;;;;;5.52;62.06;92714.56;2038320;70;20146;-72
2021/04/19 00:28:33;;;;;;;20.52;14.27;;;;;;;5.40;62.53;92714.31;2038229;70;20303;-78
2021/04/19 00:30:58;;;;;;;20.35;14.05;;;;;;;4.98;65.13;92711.66;2038278;70;20628;-75
2021/04/19 00:33:24;;;;;;;19.60;13.75;;;;;;;5.25;63.20;92704.09;2038195;70;20143;-74
2021/04/19 00:35:50;;;;;;;21.02;13.48;;;;;;;5.22;63.14;92698.91;2037781;70;20204;-77
2021/04/19 00:38:16;;;;;;;22.27;14.65;;;;;;;5.30;63.39;92702.34;2037814;70;20174;-76
2021/04/19 00:40:43;;;;;;;22.35;14.20;;;;;;;5.25;64.17;92704.09;2038222;70;20336;-76
2021/04/19 00:43:09;;;;;;;19.58;13.95;;;;;;;5.14;64.20;92709.44;2038254;70;20202;-76
2021/04/19 00:45:39;;;;;;;20.95;14.32;;;;;;;5.20;64.33;92699.50;2038248;70;20159;-73
2021/04/19 00:48:05;;;;;;;19.15;14.00;;;;;;;5.13;63.55;92694.72;2037991;70;20206;-74
2021/04/19 00:50:34;;;;;;;20.13;14.52;;;;;;;5.28;63.30;92691.78;2038296;70;20548;-73
2021/04/19 00:53:02;;;;;;;19.27;13.38;;;;;;;5.19;63.31;92695.22;2038267;70;20630;-77
2021/04/19 00:55:28;;;;;;;19.40;13.45;;;;;;;5.31;62.35;92692.66;2038289;70;20155;-79
2021/04/19 00:57:53;;;;;;;19.73;13.32;;;;;;;5.27;62.79;92700.72;2038380;70;20158;-73
2021/04/19 01:00:26;;;;;;;22.08;13.63;;;;;;;5.28;62.45;92705.72;2037611;70;20572;-76
2021/04/19 01:02:52;;;;;;;21.13;15.10;;;;;;;5.22;63.39;92702.47;2038325;70;20135;-75
2021/04/19 01:05:32;;;;;;;20.05;13.20;;;;;;;5.29;63.58;92704.41;2037733;70;20596;-78
2021/04/19 01:07:58;;;;;;;21.63;14.95;;;;;;;5.13;64.57;92694.72;2038241;70;20194;-75
2021/04/19 01:10:25;;;;;;;19.35;14.20;;;;;;;5.35;63.51;92701.34;2037761;70;20192;-75
2021/04/19 01:12:52;;;;;;;22.45;14.48;;;;;;;5.12;64.83;92693.25;2038361;70;20159;-75
2021/04/19 01:15:18;;;;;;;21.55;14.32;;;;;;;5.20;64.28;92688.31;2038092;70;20238;-78
2021/04/19 01:17:45;;;;;;;19.27;13.70;;;;;;;5.24;64.54;92699.09;2038191;70;20648;-79
2021/04/19 01:20:16;;;;;;;19.58;13.95;;;;;;;5.27;65.18;92697.94;2037684;70;20155;-76
2021/04/19 01:22:43;;;;;;;21.13;14.45;;;;;;;5.09;65.23;92702.81;2037627;70;20653;-77
2021/04/19 01:25:14;;;;;;;19.23;14.13;;;;;;;5.22;64.75;92699.66;2038082;70;20148;-73
2021/04/19 01:27:40;;;;;;;22.15;14.82;;;;;;;5.17;64.69;92692.25;2038138;70;20219;-73
2021/04/19 01:30:07;;;;;;;19.98;14.00;;;;;;;5.34;64.36;92702.69;2038183;70;20728;-76
2021/04/19 01:32:33;;;;;;;20.27;14.05;;;;;;;5.17;65.03;92703.44;2037782;70;20152;-76
2021/04/19 01:34:59;;;;;;;21.77;14.07;;;;;;;5.09;65.19;92711.16;2038259;70;20148;-73
2021/04/19 01:37:27;;;;;;;20.55;14.57;;;;;;;5.16;64.79;92709.59;2038486;70;20187;-75
2021/04/19 01:39:52;;;;;;;21.50;14.18;;;;;;;5.23;64.17;92695.56;2035360;70;20668;-80
2021/04/19 01:42:18;;;;;;;19.52;13.32;;;;;;;5.09;64.11;92703.53;2037601;70;20147;-80
2021/04/19 01:44:44;;;;;;;19.23;14.00;;;;;;;5.07;63.37;92691.47;2037323;70;20528;-77
2021/04/19 01:47:10;;;;;;;19.30;13.60;;;;;;;5.17;64.15;92694.31;2037684;70;20644;-75
2021/04/19 01:49:41;;;;;;;21.27;13.60;;;;;;;5.27;63.60;92687.50;2037669;70;20150;-77
2021/04/19 01:52:07;;;;;;;19.20;13.80;;;;;;;5.21;63.34;92695.38;2038248;70;20648;-80
2021/04/19 01:54:32;;;;;;;20.95;13.45;;;;;;;5.29;63.78;92693.25;2038170;70;20274;-81
2021/04/19 01:56:59;;;;;;;21.98;14.65;;;;;;;5.22;64.03;92691.31;2037673;70;20147;-80
2021/04/19 01:59:27;;;;;;;19.40;13.82;;;;;;;4.98;65.08;92692.13;2037507;70;20709;-79
2021/04/19 02:02:20;;;;;;;20.10;13.25;;;;;;;5.16;64.31;92692.84;2037634;70;20528;-77
2021/04/19 02:05:28;;;;;;;22.65;14.45;;;;;;;5.19;64.39;92700.09;2037654;70;20528;-81
2021/04/19 02:07:54;;;;;;;21.33;14.00;;;;;;;5.05;65.27;92697.63;2037711;70;20159;-83
2021/04/19 02:10:40;;;;;;;21.65;14.23;;;;;;;5.17;63.95;92699.91;2037912;70;20220;-82
2021/04/19 02:13:14;;;;;;;21.27;14.43;;;;;;;5.19;64.40;92689.66;2038835;70;20179;-80
2021/04/19 02:15:47;;;;;;;20.52;13.85;;;;;;;5.21;64.65;92691.84;2038600;70;20148;-80
2021/04/19 02:18:55;;;;;;;21.00;14.07;;;;;;;5.22;64.90;92698.91;2038721;70;20146;-77
2021/04/19 02:21:46;;;;;;;19.63;13.77;;;;;;;5.19;65.20;92692.44;2038847;70;20151;-82
2021/04/19 02:24:17;;;;;;;18.33;12.63;;;;;;;5.18;64.29;92693.75;2038165;70;20215;-81
2021/04/19 02:26:49;;;;;;;19.55;13.38;;;;;;;5.13;65.04;92694.00;2035641;70;20167;-82
2021/04/19 02:29:20;;;;;;;20.40;14.10;;;;;;;5.14;64.81;92699.00;2038392;70;20132;-82
2021/04/19 02:31:55;;;;;;;20.35;13.95;;;;;;;5.19;64.89;92705.66;2038817;70;20596;-83
2021/04/19 02:34:23;;;;;;;19.83;13.77;;;;;;;5.21;64.33;92700.97;2038262;70;20171;-74
2021/04/19 02:36:52;;;;;;;20.30;13.98;;;;;;;5.22;65.30;92696.88;2038787;70;20190;-82
2021/04/19 02:39:19;;;;;;;21.38;14.20;;;;;;;5.09;66.02;92691.63;2038804;70;20152;-81
2021/04/19 02:41:50;;;;;;;20.88;14.25;;;;;;;5.21;65.05;92700.97;2038109;70;20605;-81
2021/04/19 02:44:18;;;;;;;22.05;15.20;;;;;;;5.29;65.19;92701.63;2038004;70;20159;-80
2021/04/19 02:47:06;;;;;;;21.27;14.80;;;;;;;5.18;65.91;92702.13;2038094;70;20148;-78
2021/04/19 02:49:38;;;;;;;21.35;14.50;;;;;;;5.19;65.90;92702.88;2038108;70;20146;-79
2021/04/19 02:52:06;;;;;;;22.63;15.48;;;;;;;5.12;65.83;92700.91;2038891;70;20604;-80
2021/04/19 02:54:33;;;;;;;20.83;14.45;;;;;;;5.08;66.34;92699.25;2038680;70;20156;-79
2021/04/19 02:57:00;;;;;;;21.30;14.88;;;;;;;5.13;66.33;92705.16;2038775;70;20217;-78
2021/04/19 02:59:29;;;;;;;21.02;13.88;;;;;;;4.98;65.80;92706.06;2038525;70;20163;-79
2021/04/19 03:02:02;;;;;;;22.83;14.73;;;;;;;5.00;66.13;92700.66;2038745;70;20584;-82
2021/04/19 03:04:34;;;;;;;20.55;14.07;;;;;;;5.05;65.47;92706.00;2038255;70;20151;-75
2021/04/19 03:07:14;;;;;;;20.20;14.52;;;;;;;5.13;65.54;92697.50;2035847;70;20179;-75
2021/04/19 03:09:46;;;;;;;20.23;13.52;;;;;;;5.06;64.90;92698.34;2038702;70;20618;-81
2021/04/19 03:12:15;;;;;;;20.88;13.40;;;;;;;5.08;65.67;92685.28;2038219;70;20151;-75
2021/04/19 03:14:53;;;;;;;23.60;14.18;;;;;;;5.09;65.49;92692.38;2038041;70;20163;-74
2021/04/19 03:17:24;;;;;;;21.73;14.23;;;;;;;5.06;66.37;92687.94;2038151;70;20147;-78
2021/04/19 03:20:26;;;;;;;19.90;13.50;;;;;;;5.19;64.80;92694.50;2038243;70;20203;-75
2021/04/19 03:23:15;;;;;;;20.67;14.23;;;;;;;5.19;64.85;92691.72;2038193;70;20259;-75
2021/04/19 03:25:51;;;;;;;20.38;13.80;;;;;;;5.25;65.09;92692.91;2038116;70;20159;-74
2021/04/19 03:28:20;;;;;;;19.65;14.10;;;;;;;5.10;65.80;92687.53;2038004;70;20263;-75
2021/04/19 03:30:49;;;;;;;19.50;13.98;;;;;;;5.17;65.78;92689.47;2037829;70;20223;-75
2021/04/19 03:33:16;;;;;;;19.90;13.27;;;;;;;5.34;65.57;92692.25;2037942;70;20684;-74
2021/04/19 03:35:46;;;;;;;22.38;14.90;;;;;;;5.33;65.73;92692.84;2037980;70;20655;-75
2021/04/19 03:38:17;;;;;;;22.02;14.70;;;;;;;5.32;65.24;92694.16;2037979;70;20227;-74
2021/04/19 03:40:47;;;;;;;19.98;13.77;;;;;;;5.16;66.97;92690.78;2037941;70;20619;-78
2021/04/19 03:43:19;;;;;;;21.75;15.15;;;;;;;5.19;66.49;92688.91;2038642;70;20254;-76
2021/04/19 03:46:10;;;;;;;23.02;14.88;;;;;;;5.10;66.77;92685.47;2037490;70;20143;-76
2021/04/19 03:48:49;;;;;;;22.95;14.73;;;;;;;5.02;66.53;92689.66;2037905;70;20156;-75
2021/04/19 03:51:26;;;;;;;20.40;14.43;;;;;;;5.10;66.83;92682.69;2038036;70;20152;-81
2021/04/19 03:53:58;;;;;;;21.27;13.77;;;;;;;5.19;66.77;92688.91;2038443;70;20251;-76
2021/04/19 03:56:30;;;;;;;18.25;13.48;;;;;;;5.25;65.89;92692.91;2038553;70;20173;-74
2021/04/19 03:59:02;;;;;;;22.73;13.80;;;;;;;4.85;67.60;92682.75;2037917;70;20155;-75
2021/04/19 04:01:36;;;;;;;20.88;14.73;;;;;;;4.95;67.08;92688.44;2037799;70;20151;-74
2021/04/19 04:04:02;;;;;;;21.33;14.50;;;;;;;5.14;66.51;92682.28;2037862;70;20147;-75
2021/04/19 04:06:35;;;;;;;20.65;14.65;;;;;;;5.29;65.80;92684.13;2038546;70;20144;-74
2021/04/19 04:09:03;;;;;;;21.25;14.35;;;;;;;5.34;65.41;92686.66;2038643;70;20533;-73
2021/04/19 04:11:29;;;;;;;23.42;15.25;;;;;;;5.39;65.47;92684.94;2038539;70;20162;-74
2021/04/19 04:14:17;;;;;;;23.30;15.38;;;;;;;5.26;65.95;92683.22;2038000;70;20175;-74
2021/04/19 04:16:44;;;;;;;21.05;14.60;;;;;;;5.20;66.19;92682.00;2037684;70;20255;-74
2021/04/19 04:19:13;;;;;;;21.83;14.75;;;;;;;5.20;65.73;92685.53;2037824;70;20152;-74
2021/04/19 04:21:48;;;;;;;23.45;15.38;;;;;;;5.14;66.49;92676.69;2037845;70;20178;-75
2021/04/19 04:24:24;;;;;;;23.77;15.23;;;;;;;5.10;67.39;92679.88;2037843;70;20156;-78
2021/04/19 04:26:50;;;;;;;21.05;14.38;;;;;;;5.12;67.15;92684.16;2038592;70;20151;-80
2021/04/19 04:29:16;;;;;;;21.50;14.45;;;;;;;5.14;67.35;92684.31;2038448;70;20327;-80
2021/04/19 04:31:57;;;;;;;23.00;15.27;;;;;;;5.19;66.93;92686.88;2038343;70;20198;-79
2021/04/19 04:34:23;;;;;;;21.52;15.32;;;;;;;5.16;66.78;92682.41;2038353;70;20152;-78
2021/04/19 04:36:49;;;;;;;24.00;15.82;;;;;;;5.17;67.46;92686.69;2038295;70;20187;-79
2021/04/19 04:39:17;;;;;;;23.35;15.85;;;;;;;5.11;67.29;92691.78;2037768;70;20223;-75
2021/04/19 04:41:47;;;;;;;23.85;16.50;;;;;;;5.10;67.70;92691.06;2038455;70;20182;-75
2021/04/19 04:44:17;;;;;;;22.33;15.45;;;;;;;5.21;66.80;92694.66;2038336;70;20155;-76
2021/04/19 04:47:11;;;;;;;20.40;14.45;;;;;;;5.33;66.11;92696.34;2038182;70;20151;-78
2021/04/19 04:50:10;;;;;;;26.33;15.68;;;;;;;5.32;66.30;92692.09;2037789;70;20183;-78
2021/04/19 04:52:43;;;;;;;22.48;14.50;;;;;;;5.21;66.03;92687.00;2038392;70;20648;-80
2021/04/19 04:55:13;;;;;;;22.77;15.02;;;;;;;5.26;65.98;92694.38;2038316;70;20159;-77
2021/04/19 04:57:44;;;;;;;23.25;15.25;;;;;;;5.17;67.11;92697.09;2038304;70;20513;-78
2021/04/19 05:00:11;;;;;;;22.63;15.43;;;;;;;5.27;66.61;92690.31;2038227;70;20155;-78
2021/04/19 05:02:38;;;;;;;25.00;15.20;;;;;;;5.33;66.23;92693.56;2038286;70;20175;-76
2021/04/19 05:05:04;;;;;;;22.83;15.38;;;;;;;5.43;65.69;92698.47;2038369;70;20155;-78
2021/04/19 05:07:30;;;;;;;25.70;16.33;;;;;;;5.39;65.66;92696.09;2038379;70;20242;-80
2021/04/19 05:09:56;;;;;;;25.00;15.27;;;;;;;4.65;68.95;92695.06;2038366;70;20242;-77
2021/04/19 05:12:22;;;;;;;26.25;16.00;;;;;;;4.73;69.83;92692.94;2038372;70;20334;-77
2021/04/19 05:15:03;;;;;;;25.95;15.00;;;;;;;5.02;68.38;92692.44;2038226;70;20147;-82
2021/04/19 05:17:29;;;;;;;23.42;14.95;;;;;;;5.20;68.82;92701.56;2038398;70;20156;-78
2021/04/19 05:19:54;;;;;;;24.30;15.60;;;;;;;5.12;67.67;92707.22;2038539;70;20140;-76
2021/04/19 05:22:20;;;;;;;23.35;15.38;;;;;;;5.29;67.78;92700.88;2038345;70;20187;-79
2021/04/19 05:24:47;;;;;;;25.77;16.20;;;;;;;5.15;68.62;92702.53;2038301;70;20159;-81
2021/04/19 05:27:13;;;;;;;25.52;15.60;;;;;;;5.28;67.97;92700.16;2037768;70;20162;-76
2021/04/19 05:29:39;;;;;;;24.10;15.00;;;;;;;5.50;67.35;92701.19;2038467;70;20144;-77
2021/04/19 05:32:07;;;;;;;26.15;16.20;;;;;;;5.46;66.26;92711.28;2038355;70;20517;-76
2021/04/19 05:34:33;;;;;;;27.33;15.73;;;;;;;5.57;66.32;92710.75;2038319;70;20171;-79
2021/04/19 05:37:01;;;;;;;27.92;16.13;;;;;;;5.60;66.28;92710.34;2038164;70;20175;-77
2021/04/19 05:39:29;;;;;;;26.77;15.65;;;;;;;5.71;66.19;92711.16;2038213;70;20148;-78
2021/04/19 05:41:56;;;;;;;26.45;16.38;;;;;;;5.65;66.86;92710.69;2037643;70;20597;-80
2021/04/19 05:44:22;;;;;;;25.52;15.48;;;;;;;5.80;65.89;92718.84;2038040;70;20151;-73
2021/04/19 05:46:48;;;;;;;26.80;16.05;;;;;;;5.91;65.30;92715.53;2038808;70;20140;-77
2021/04/19 05:49:13;;;;;;;27.85;16.48;;;;;;;5.96;65.40;92716.63;2038633;70;20168;-80
2021/04/19 05:51:42;;;;;;;26.48;15.40;;;;;;;5.94;64.86;92717.19;2038633;70;20159;-76
2021/04/19 05:54:09;;;;;;;32.08;16.60;;;;;;;5.99;64.35;92718.22;2038522;70;20156;-78
2021/04/19 05:56:34;;;;;;;23.35;15.60;;;;;;;6.11;63.39;92716.38;2038569;70;20576;-78
2021/04/19 05:59:18;;;;;;;26.23;16.58;;;;;;;6.09;64.01;92713.41;2038566;70;20601;-76
2021/04/19 06:01:47;;;;;;;28.33;16.45;;;;;;;6.05;64.29;92716.66;2038407;70;20148;-74
2021/04/19 06:04:37;;;;;;;24.58;15.98;;;;;;;6.18;64.37;92720.38;2037977;70;20246;-76
2021/04/19 06:07:12;;;;;;;25.42;15.73;;;;;;;6.22;63.80;92721.41;2038630;70;20609;-79
2021/04/19 06:10:27;;;;;;;26.30;16.35;;;;;;;6.23;64.72;92719.34;2038424;70;20263;-77
2021/04/19 06:13:07;;;;;;;28.98;16.40;;;;;;;5.91;64.72;92721.13;2038034;70;20144;-78
2021/04/19 06:15:34;;;;;;;26.65;16.23;;;;;;;5.66;65.72;92724.06;2038399;70;20187;-73
2021/04/19 06:18:00;;;;;;;24.08;16.33;;;;;;;5.63;67.07;92728.00;2038430;70;20135;-73
2021/04/19 06:20:27;;;;;;;26.33;16.42;;;;;;;5.41;67.98;92726.97;2037895;70;20190;-73
2021/04/19 06:22:54;;;;;;;26.50;15.90;;;;;;;6.17;65.61;92724.50;2038467;70;20215;-77
2021/04/19 06:25:22;;;;;;;26.38;17.50;;;;;;;6.36;64.90;92728.09;2038465;70;20139;-75
2021/04/19 06:27:49;;;;;;;26.02;17.05;;;;;;;6.29;64.37;92728.22;2038506;70;20151;-75
2021/04/19 06:30:18;;;;;;;25.92;17.00;;;;;;;6.48;64.49;92724.75;2038432;70;20156;-78
2021/04/19 06:32:49;;;;;;;29.17;18.48;;;;;;;6.42;64.75;92727.84;2038501;70;20235;-76
2021/04/19 06:35:16;;;;;;;28.98;19.30;;;;;;;6.72;64.14;92725.84;2037982;70;20229;-76
2021/04/19 06:37:47;;;;;;;26.75;18.33;;;;;;;6.87;62.84;92723.53;2040064;70;20195;-75
2021/04/19 06:40:14;;;;;;;28.80;17.95;;;;;;;6.69;63.60;92719.38;2040151;70;20211;-79
2021/04/19 06:42:39;;;;;;;28.50;18.98;;;;;;;6.08;65.25;92728.72;2038401;70;20219;-78
2021/04/19 06:45:06;;;;;;;29.13;18.98;;;;;;;6.43;64.53;92726.50;2038265;70;20152;-75
2021/04/19 06:47:35;;;;;;;31.30;19.85;;;;;;;6.43;64.75;92722.97;2038510;70;20167;-83
2021/04/19 06:50:05;;;;;;;29.15;18.42;;;;;;;6.26;65.32;92721.72;2038633;70;20164;-77
2021/04/19 06:52:35;;;;;;;28.95;18.60;;;;;;;6.27;65.48;92720.41;2038632;70;20155;-79
2021/04/19 06:55:00;;;;;;;29.85;19.50;;;;;;;6.19;65.57;92719.06;2038351;70;20231;-80
2021/04/19 06:57:34;;;;;;;27.73;18.95;;;;;;;5.97;66.37;92720.88;2038507;70;20219;-80
2021/04/19 07:00:04;;;;;;;27.10;18.58;;;;;;;6.45;65.18;92718.25;2038454;70;20156;-80
2021/04/19 07:02:34;;;;;;;31.63;19.58;;;;;;;6.80;63.59;92724.41;2038489;70;20155;-79
2021/04/19 07:05:01;;;;;;;29.40;19.15;;;;;;;6.07;66.30;92727.97;2038686;70;20150;-80
2021/04/19 07:07:34;;;;;;;32.20;19.15;;;;;;;6.28;65.94;92718.38;2038518;70;20158;-78
2021/04/19 07:10:03;;;;;;;29.17;18.92;;;;;;;6.83;63.51;92720.44;2038445;70;20160;-77
2021/04/19 07:12:33;;;;;;;28.63;19.33;;;;;;;7.75;62.70;92709.53;2038619;70;20251;-77
2021/04/19 07:15:02;;;;;;;28.73;19.48;;;;;;;7.51;61.83;92714.13;2038341;70;20200;-77
2021/04/19 07:17:30;;;;;;;26.85;19.08;;;;;;;8.12;60.32;92721.25;2038647;70;20144;-78
2021/04/19 07:19:56;;;;;;;30.90;19.25;;;;;;;8.37;60.71;92718.81;2038656;70;20509;-82
2021/04/19 07:22:21;;;;;;;28.48;19.90;;;;;;;8.58;60.24;92711.81;2039013;70;20154;-82
2021/04/19 07:24:47;;;;;;;28.30;19.40;;;;;;;8.60;59.12;92707.03;2038732;70;20171;-77
2021/04/19 07:27:14;;;;;;;29.17;20.30;;;;;;;8.74;58.38;92707.28;2038536;70;20144;-80
2021/04/19 07:29:40;;;;;;;29.38;19.63;;;;;;;8.95;57.88;92715.00;2038369;70;20159;-77
2021/04/19 07:32:06;;;;;;;29.73;19.65;;;;;;;8.89;57.57;92703.38;2038462;70;20136;-78
2021/04/19 07:34:33;;;;;;;28.85;19.40;;;;;;;9.08;57.64;92708.13;2038419;70;20187;-79
2021/04/19 07:37:01;;;;;;;28.67;19.75;;;;;;;9.14;56.26;92714.13;2038477;70;20588;-79
2021/04/19 07:39:30;;;;;;;29.98;19.38;;;;;;;8.75;57.32;92708.75;2038468;70;20159;-77
2021/04/19 07:41:57;;;;;;;30.50;20.10;;;;;;;8.90;56.52;92708.38;2038455;70;20216;-79
2021/04/19 07:44:43;;;;;;;29.48;20.77;;;;;;;9.06;56.56;92707.97;2038272;70;20132;-77
2021/04/19 07:47:38;;;;;;;30.15;20.25;;;;;;;8.02;59.22;92704.47;2038399;70;20216;-79
2021/04/19 07:50:20;;;;;;;29.23;20.35;;;;;;;8.37;57.83;92707.59;2038399;70;20152;-78
2021/04/19 07:52:50;;;;;;;30.83;21.67;;;;;;;8.20;57.22;92699.38;2038518;70;20601;-78
2021/04/19 07:55:53;;;;;;;28.95;20.73;;;;;;;8.55;57.22;92694.06;2037898;70;20167;-80
2021/04/19 07:58:21;;;;;;;29.25;19.90;;;;;;;9.65;55.41;92695.66;2036855;70;20140;-76
2021/04/19 08:00:48;;;;;;;28.27;19.63;;;;;;;9.00;54.51;92702.69;2038293;70;20175;-80
2021/04/19 08:03:16;;;;;;;28.40;20.05;;;;;;;8.50;55.22;92695.13;2038427;70;20508;-79
2021/04/19 08:05:48;;;;;;;31.92;20.58;;;;;;;8.14;56.45;92688.47;2038555;70;20151;-77
2021/04/19 08:08:16;;;;;;;30.70;19.98;;;;;;;8.80;56.04;92681.69;2038191;70;20167;-80
2021/04/19 08:10:44;;;;;;;28.92;19.70;;;;;;;8.55;55.20;92687.72;2038412;70;20231;-75
2021/04/19 08:13:10;;;;;;;29.38;19.40;;;;;;;9.03;55.36;92686.72;2038372;70;20541;-78
2021/04/19 08:15:36;;;;;;;31.30;20.70;;;;;;;8.87;54.78;92691.97;2038302;70;20143;-79
2021/04/19 08:18:11;;;;;;;31.10;19.83;;;;;;;8.78;55.50;92685.09;2038347;70;20135;-79
2021/04/19 08:20:46;;;;;;;30.63;19.70;;;;;;;8.62;56.41;92681.94;2038382;70;20171;-80
2021/04/19 08:23:13;;;;;;;29.13;19.13;;;;;;;9.74;54.04;92682.88;2038591;70;20284;-78
2021/04/19 08:25:50;;;;;;;31.08;20.45;;;;;;;8.88;54.12;92685.03;2038470;70;20149;-79
2021/04/19 08:28:19;;;;;;;27.83;19.90;;;;;;;8.42;55.03;92691.03;2038310;70;20136;-80
2021/04/19 08:30:47;;;;;;;25.65;18.92;;;;;;;8.89;54.48;92690.06;2038259;70;20147;-77
2021/04/19 08:33:16;;;;;;;29.23;20.63;;;;;;;8.75;55.99;92686.31;2038360;70;20307;-79
2021/04/19 08:35:44;;;;;;;26.17;19.17;;;;;;;9.55;53.92;92697.84;2038474;70;20500;-78
2021/04/19 08:38:10;;;;;;;27.58;19.27;;;;;;;8.68;55.05;92689.28;2038348;70;20156;-78
2021/04/19 08:40:41;;;;;;;28.80;19.50;;;;;;;8.90;54.45;92685.19;2038632;70;20220;-81
2021/04/19 08:43:15;;;;;;;30.35;19.83;;;;;;;8.26;56.58;92682.25;2038078;70;20148;-77
2021/04/19 08:45:41;;;;;;;27.83;19.75;;;;;;;9.22;53.30;92685.84;2038238;70;20573;-79
2021/04/19 08:48:11;;;;;;;29.10;18.92;;;;;;;8.56;54.24;92686.41;2038422;70;20164;-78
2021/04/19 08:50:38;;;;;;;29.05;19.98;;;;;;;9.36;52.98;92695.94;2038271;70;20602;-79
2021/04/19 08:53:07;;;;;;;32.13;21.05;;;;;;;9.78;52.46;92694.38;2038396;70;20148;-82
2021/04/19 08:55:33;;;;;;;30.10;18.65;;;;;;;9.43;52.68;92691.44;2038477;70;20151;-76
2021/04/19 08:58:08;;;;;;;28.35;19.20;;;;;;;9.36;53.46;92695.19;2038425;70;20154;-80
2021/04/19 09:00:35;;;;;;;26.30;18.35;;;;;;;9.55;51.61;92700.66;2038328;70;20668;-76
2021/04/19 09:03:01;;;;;;;25.17;18.17;;;;;;;9.07;53.61;92684.16;2038528;70;20228;-80
2021/04/19 09:05:27;;;;;;;26.63;17.80;;;;;;;10.01;50.81;92684.53;2038393;70;20156;-75
2021/04/19 09:08:12;;;;;;;24.77;17.13;;;;;;;11.13;48.57;92688.47;2038933;70;20207;-79
2021/04/19 09:10:48;;;;;;;22.60;15.43;;;;;;;12.14;47.27;92687.13;2039364;70;20243;-78
2021/04/19 09:13:35;;;;;;;23.73;16.75;;;;;;;11.51;45.93;92689.25;2038417;70;20242;-80
2021/04/19 09:16:23;;;;;;;23.23;16.85;;;;;;;12.50;45.22;92682.72;2038134;70;20581;-78
2021/04/19 09:18:59;;;;;;;25.25;16.70;;;;;;;12.51;45.92;92681.38;2038350;70;20242;-75
2021/04/19 09:22:08;;;;;;;22.85;17.27;;;;;;;12.68;45.24;92675.22;2038272;70;20239;-81
2021/04/19 09:25:13;;;;;;;26.73;16.30;;;;;;;12.04;45.43;92672.47;2028425;70;20727;-80
2021/04/19 09:27:56;;;;;;;22.20;15.60;;;;;;;12.07;44.36;92677.59;2030764;70;20251;-74
2021/04/19 09:30:25;;;;;;;16.52;12.75;;;;;;;11.11;43.95;92675.00;2030969;70;20183;-72
2021/04/19 09:33:06;;;;;;;20.88;15.07;;;;;;;12.16;43.36;92671.06;2030949;70;20144;-80
2021/04/19 09:35:49;;;;;;;16.65;13.15;;;;;;;12.19;43.08;92669.09;2030921;70;20156;-76
2021/04/19 09:38:41;;;;;;;20.40;15.48;;;;;;;11.44;44.54;92666.34;2031059;70;20144;-74
2021/04/19 09:41:12;;;;;;;21.33;14.70;;;;;;;11.84;44.46;92670.00;2029548;70;20149;-73
2021/04/19 09:43:40;;;;;;;18.63;14.27;;;;;;;12.17;43.62;92658.41;2030409;70;20204;-72
2021/04/19 09:46:08;;;;;;;19.63;14.27;;;;;;;11.81;44.35;92667.66;2030268;70;20160;-76
2021/04/19 09:48:35;;;;;;;19.45;14.63;;;;;;;9.73;46.83;92664.53;2030607;70;20184;-72
2021/04/19 09:51:07;;;;;;;19.05;14.57;;;;;;;10.42;46.70;92662.47;2028081;70;20228;-72
2021/04/19 09:53:33;;;;;;;21.02;14.13;;;;;;;11.70;44.52;92658.63;2030826;70;20154;-73
2021/04/19 09:56:00;;;;;;;19.90;14.18;;;;;;;11.25;44.32;92663.09;2030763;70;20216;-72
2021/04/19 09:58:26;;;;;;;19.58;13.48;;;;;;;11.56;43.02;92665.56;2029726;70;20239;-73
2021/04/19 10:01:00;;;;;;;15.07;11.45;;;;;;;11.88;41.76;92655.41;2034836;70;20615;-71
2021/04/19 10:03:27;;;;;;;15.32;11.35;;;;;;;11.93;40.89;92660.63;2038195;70;20128;-72
2021/04/19 10:05:54;;;;;;;12.95;9.18;;;;;;;13.14;39.61;92656.38;2038029;70;20556;-71
2021/04/19 10:08:22;;;;;;;16.40;11.65;;;;;;;11.84;41.10;92655.91;2038125;70;20148;-71
2021/04/19 10:10:52;;;;;;;15.43;11.60;;;;;;;12.90;40.77;92652.31;2038193;70;20268;-73
2021/04/19 10:13:37;;;;;;;17.60;9.93;;;;;;;12.84;37.32;92657.66;2038266;70;20144;-74
2021/04/19 10:16:12;;;;;;;15.70;10.75;;;;;;;13.04;38.66;92655.88;2038238;70;20592;-73
2021/04/19 10:19:00;;;;;;;15.20;10.98;;;;;;;12.26;39.44;92658.84;2037875;70;20159;-74
2021/04/19 10:21:31;;;;;;;14.52;11.20;;;;;;;13.31;38.84;92655.13;2038347;70;20154;-73
2021/04/19 10:23:58;;;;;;;15.93;10.52;;;;;;;15.03;36.72;92651.78;2038201;70;20223;-73
2021/04/19 10:26:31;;;;;;;12.55;9.27;;;;;;;14.31;36.94;92647.88;2038013;70;20158;-74
2021/04/19 10:28:57;;;;;;;12.45;9.75;;;;;;;13.24;37.34;92650.56;2038051;70;20346;-75
2021/04/19 10:31:23;;;;;;;10.45;7.35;;;;;;;13.85;36.77;92642.19;2038319;70;20231;-74
2021/04/19 10:33:51;;;;;;;9.48;7.28;;;;;;;13.58;35.73;92648.69;2038545;70;20591;-74
2021/04/19 10:36:19;;;;;;;9.63;7.35;;;;;;;13.35;35.83;92640.47;2038051;70;20172;-74
2021/04/19 10:38:46;;;;;;;10.55;7.75;;;;;;;13.95;34.67;92648.34;2038696;70;20672;-73
2021/04/19 10:41:13;;;;;;;10.52;8.35;;;;;;;12.27;36.58;92641.28;2038483;70;20183;-76
2021/04/19 10:43:40;;;;;;;12.15;8.23;;;;;;;13.84;35.31;92642.84;2038408;70;20143;-73
2021/04/19 10:46:28;;;;;;;10.48;8.00;;;;;;;12.84;36.68;92637.88;2038410;70;20246;-72
2021/04/19 10:48:59;;;;;;;9.88;7.88;;;;;;;13.45;35.18;92635.31;2038553;70;20148;-78
2021/04/19 10:51:45;;;;;;;10.80;8.65;;;;;;;11.66;37.97;92624.56;2038574;70;20147;-74
2021/04/19 10:54:11;;;;;;;10.98;7.80;;;;;;;12.21;35.70;92627.56;2038453;70;20585;-74
2021/04/19 10:56:42;;;;;;;12.30;8.13;;;;;;;11.79;37.73;92631.63;2038061;70;20246;-72
2021/04/19 10:59:08;;;;;;;12.00;7.57;;;;;;;11.80;37.27;92632.34;2038546;70;20172;-73
2021/04/19 11:01:36;;;;;;;9.80;6.63;;;;;;;12.12;36.63;92622.13;2038284;70;20148;-73
2021/04/19 11:04:04;;;;;;;7.68;6.10;;;;;;;12.57;36.04;92622.41;2038561;70;20203;-77
2021/04/19 11:06:30;;;;;;;7.55;6.00;;;;;;;12.43;35.81;92621.66;2038527;70;20263;-73
2021/04/19 11:09:15;;;;;;;7.03;5.60;;;;;;;11.73;35.29;92622.06;2038420;70;20151;-72
2021/04/19 11:11:48;;;;;;;7.55;4.93;;;;;;;12.87;34.58;92628.13;2038474;70;20243;-74
2021/04/19 11:14:20;;;;;;;5.45;4.40;;;;;;;12.30;33.59;92628.75;2038441;70;20608;-74
2021/04/19 11:16:53;;;;;;;7.35;5.00;;;;;;;11.95;35.21;92626.16;2038361;70;20227;-71
2021/04/19 11:19:40;;;;;;;;;;;;;;;10.54;37.31;92614.63;2038593;70;20623;-71
2021/04/19 11:22:29;;;;;;;7.60;5.78;;;;;;;11.36;37.12;92601.06;2038342;70;20055;-77
2021/04/19 11:25:11;;;;;;;6.82;5.68;;;;;;;12.66;35.58;92615.09;2038703;70;20167;-80
2021/04/19 11:27:37;;;;;;;7.35;5.78;;;;;;;12.80;34.81;92612.25;2037842;70;20167;-76
2021/04/19 11:30:15;;;;;;;8.25;6.55;;;;;;;12.24;35.57;92605.13;2037757;70;20150;-77
2021/04/19 11:32:41;;;;;;;7.90;6.18;;;;;;;13.78;33.60;92614.25;2037603;70;20219;-77
2021/04/19 11:35:07;;;;;;;6.78;4.97;;;;;;;14.41;33.71;92609.41;2037598;70;20540;-80
2021/04/19 11:37:36;;;;;;;6.70;5.15;;;;;;;12.75;34.13;92599.28;2037965;70;20180;-80
2021/04/19 11:40:04;;;;;;;7.32;4.90;;;;;;;12.84;33.80;92599.06;2038005;70;20158;-76
2021/04/19 11:42:35;;;;;;;7.65;4.90;;;;;;;12.54;33.64;92600.31;2038205;70;20228;-76
2021/04/19 11:45:04;;;;;;;6.30;4.32;;;;;;;13.15;34.08;92601.34;2039404;70;20143;-77